sensor_id;sensor_type;location;lat;lon;timestamp;temperature;humidity
31542;DHT22;18152;49.986;8.646;2022-09-11T00:00:52;14.80;99.90
31542;DHT22;18152;49.986;8.646;2022-09-11T00:03:20;14.80;99.90
31542;DHT22;18152;49.986;8.646;2022-09-11T00:05:46;14.80;99.90
31542;DHT22;18152;49.986;8.646;2022-09-11T00:08:14;14.80;99.90
31542;DHT22;18152;49.986;8.646;2022-09-11T00:10:42;14.80;99.90
31542;DHT22;18152;49.986;8.646;2022-09-11T00:13:20;14.80;99.90
31542;DHT22;18152;49.986;8.646;2022-09-11T00:15:48;14.80;99.90
31542;DHT22;18152;49.986;8.646;2022-09-11T00:18:15;14.80;99.90
31542;DHT22;18152;49.986;8.646;2022-09-11T00:20:50;14.80;99.90
31542;DHT22;18152;49.986;8.646;2022-09-11T00:23:17;14.90;99.90
31542;DHT22;18152;49.986;8.646;2022-09-11T00:25:44;14.70;99.90
31542;DHT22;18152;49.986;8.646;2022-09-11T00:28:21;14.70;99.90
31542;DHT22;18152;49.986;8.646;2022-09-11T00:31:03;14.70;99.90
31542;DHT22;18152;49.986;8.646;2022-09-11T00:33:30;14.70;99.90
31542;DHT22;18152;49.986;8.646;2022-09-11T00:35:59;14.70;99.90
31542;DHT22;18152;49.986;8.646;2022-09-11T00:38:26;14.60;99.90
31542;DHT22;18152;49.986;8.646;2022-09-11T00:40:54;14.60;99.90
31542;DHT22;18152;49.986;8.646;2022-09-11T00:43:20;14.60;99.90
31542;DHT22;18152;49.986;8.646;2022-09-11T00:45:51;14.60;99.90
31542;DHT22;18152;49.986;8.646;2022-09-11T00:48:21;14.60;99.90
31542;DHT22;18152;49.986;8.646;2022-09-11T00:50:49;14.60;99.90
31542;DHT22;18152;49.986;8.646;2022-09-11T00:53:16;14.50;99.90
31542;DHT22;18152;49.986;8.646;2022-09-11T00:55:49;14.60;99.90
31542;DHT22;18152;49.986;8.646;2022-09-11T00:58:20;14.50;99.90
31542;DHT22;18152;49.986;8.646;2022-09-11T01:00:48;14.50;99.90
31542;DHT22;18152;49.986;8.646;2022-09-11T01:03:15;14.50;99.90
31542;DHT22;18152;49.986;8.646;2022-09-11T01:05:41;14.60;99.90
31542;DHT22;18152;49.986;8.646;2022-09-11T01:08:08;14.60;99.90
31542;DHT22;18152;49.986;8.646;2022-09-11T01:24:11;14.70;99.90
31542;DHT22;18152;49.986;8.646;2022-09-11T01:29:47;14.80;99.90
31542;DHT22;18152;49.986;8.646;2022-09-11T01:32:27;14.80;99.90
31542;DHT22;18152;49.986;8.646;2022-09-11T01:35:03;14.70;99.90
31542;DHT22;18152;49.986;8.646;2022-09-11T01:37:43;14.70;99.90
31542;DHT22;18152;49.986;8.646;2022-09-11T01:40:43;14.60;99.90
31542;DHT22;18152;49.986;8.646;2022-09-11T01:43:12;14.60;99.90
31542;DHT22;18152;49.986;8.646;2022-09-11T01:45:44;14.70;99.90
31542;DHT22;18152;49.986;8.646;2022-09-11T01:48:15;14.60;99.90
31542;DHT22;18152;49.986;8.646;2022-09-11T01:50:45;14.60;99.90
31542;DHT22;18152;49.986;8.646;2022-09-11T01:53:15;14.60;99.90
31542;DHT22;18152;49.986;8.646;2022-09-11T01:56:11;14.60;99.90
31542;DHT22;18152;49.986;8.646;2022-09-11T01:58:40;14.60;99.90
31542;DHT22;18152;49.986;8.646;2022-09-11T02:01:15;14.60;99.90
31542;DHT22;18152;49.986;8.646;2022-09-11T02:03:51;14.60;99.90
31542;DHT22;18152;49.986;8.646;2022-09-11T02:06:31;14.60;99.90
31542;DHT22;18152;49.986;8.646;2022-09-11T02:09:02;14.60;99.90
31542;DHT22;18152;49.986;8.646;2022-09-11T02:11:33;14.60;99.90
31542;DHT22;18152;49.986;8.646;2022-09-11T02:14:14;14.50;99.90
31542;DHT22;18152;49.986;8.646;2022-09-11T02:19:35;14.40;99.90
31542;DHT22;18152;49.986;8.646;2022-09-11T02:22:01;14.40;99.90
31542;DHT22;18152;49.986;8.646;2022-09-11T02:24:26;14.30;99.90
31542;DHT22;18152;49.986;8.646;2022-09-11T02:27:13;14.30;99.90
31542;DHT22;18152;49.986;8.646;2022-09-11T02:29:41;14.30;99.90
31542;DHT22;18152;49.986;8.646;2022-09-11T02:32:07;14.30;99.90
31542;DHT22;18152;49.986;8.646;2022-09-11T02:34:36;14.20;99.90
31542;DHT22;18152;49.986;8.646;2022-09-11T02:37:19;14.30;99.90
31542;DHT22;18152;49.986;8.646;2022-09-11T02:51:38;14.20;99.90
31542;DHT22;18152;49.986;8.646;2022-09-11T02:59:49;14.30;99.90
31542;DHT22;18152;49.986;8.646;2022-09-11T03:02:16;14.30;99.90
31542;DHT22;18152;49.986;8.646;2022-09-11T03:04:42;14.30;99.90
31542;DHT22;18152;49.986;8.646;2022-09-11T03:07:08;14.30;99.90
31542;DHT22;18152;49.986;8.646;2022-09-11T03:09:34;14.40;99.90
31542;DHT22;18152;49.986;8.646;2022-09-11T03:12:00;14.30;99.90
31542;DHT22;18152;49.986;8.646;2022-09-11T03:14:26;14.30;99.90
31542;DHT22;18152;49.986;8.646;2022-09-11T03:16:52;14.40;99.90
31542;DHT22;18152;49.986;8.646;2022-09-11T03:19:17;14.30;99.90
31542;DHT22;18152;49.986;8.646;2022-09-11T03:21:43;14.40;99.90
31542;DHT22;18152;49.986;8.646;2022-09-11T03:24:08;14.40;99.90
31542;DHT22;18152;49.986;8.646;2022-09-11T03:26:35;14.30;99.90
31542;DHT22;18152;49.986;8.646;2022-09-11T03:29:01;14.40;99.90
31542;DHT22;18152;49.986;8.646;2022-09-11T03:31:27;14.30;99.90
31542;DHT22;18152;49.986;8.646;2022-09-11T03:33:53;14.40;99.90
31542;DHT22;18152;49.986;8.646;2022-09-11T03:36:19;14.40;99.90
31542;DHT22;18152;49.986;8.646;2022-09-11T03:38:45;14.40;99.90
31542;DHT22;18152;49.986;8.646;2022-09-11T03:41:12;14.40;99.90
31542;DHT22;18152;49.986;8.646;2022-09-11T03:43:38;14.40;99.90
31542;DHT22;18152;49.986;8.646;2022-09-11T03:46:03;14.40;99.90
31542;DHT22;18152;49.986;8.646;2022-09-11T03:48:29;14.40;99.90
31542;DHT22;18152;49.986;8.646;2022-09-11T03:50:55;14.40;99.90
31542;DHT22;18152;49.986;8.646;2022-09-11T03:53:20;14.40;99.90
31542;DHT22;18152;49.986;8.646;2022-09-11T03:55:47;14.40;99.90
31542;DHT22;18152;49.986;8.646;2022-09-11T03:58:14;14.40;99.90
31542;DHT22;18152;49.986;8.646;2022-09-11T04:00:44;14.40;99.90
31542;DHT22;18152;49.986;8.646;2022-09-11T04:03:13;14.40;99.90
31542;DHT22;18152;49.986;8.646;2022-09-11T04:05:53;14.30;99.90
31542;DHT22;18152;49.986;8.646;2022-09-11T04:08:19;14.30;99.90
31542;DHT22;18152;49.986;8.646;2022-09-11T04:10:45;14.30;99.90
31542;DHT22;18152;49.986;8.646;2022-09-11T04:13:10;14.30;99.90
31542;DHT22;18152;49.986;8.646;2022-09-11T04:15:36;14.30;99.90
31542;DHT22;18152;49.986;8.646;2022-09-11T04:18:05;14.30;99.90
31542;DHT22;18152;49.986;8.646;2022-09-11T04:20:31;14.20;99.90
31542;DHT22;18152;49.986;8.646;2022-09-11T04:22:57;14.30;99.90
31542;DHT22;18152;49.986;8.646;2022-09-11T04:25:23;14.20;99.90
31542;DHT22;18152;49.986;8.646;2022-09-11T04:27:48;14.20;99.90
31542;DHT22;18152;49.986;8.646;2022-09-11T04:30:14;14.10;99.90
31542;DHT22;18152;49.986;8.646;2022-09-11T04:32:40;14.10;99.90
31542;DHT22;18152;49.986;8.646;2022-09-11T04:35:05;14.00;99.90
31542;DHT22;18152;49.986;8.646;2022-09-11T04:37:31;14.00;99.90
31542;DHT22;18152;49.986;8.646;2022-09-11T04:39:59;14.00;99.90
31542;DHT22;18152;49.986;8.646;2022-09-11T04:42:25;13.90;99.90
31542;DHT22;18152;49.986;8.646;2022-09-11T04:44:51;13.90;99.90
31542;DHT22;18152;49.986;8.646;2022-09-11T04:47:16;13.80;99.90
31542;DHT22;18152;49.986;8.646;2022-09-11T04:49:43;13.80;99.90
31542;DHT22;18152;49.986;8.646;2022-09-11T04:52:11;13.70;99.90
31542;DHT22;18152;49.986;8.646;2022-09-11T04:54:36;13.80;99.90
31542;DHT22;18152;49.986;8.646;2022-09-11T04:57:02;13.70;99.90
31542;DHT22;18152;49.986;8.646;2022-09-11T04:59:28;13.70;99.90
31542;DHT22;18152;49.986;8.646;2022-09-11T05:01:55;13.70;99.90
31542;DHT22;18152;49.986;8.646;2022-09-11T05:04:20;13.70;99.90
31542;DHT22;18152;49.986;8.646;2022-09-11T05:06:46;13.70;99.90
31542;DHT22;18152;49.986;8.646;2022-09-11T05:09:16;13.70;99.90
31542;DHT22;18152;49.986;8.646;2022-09-11T05:11:42;13.60;99.90
31542;DHT22;18152;49.986;8.646;2022-09-11T05:14:07;13.60;99.90
31542;DHT22;18152;49.986;8.646;2022-09-11T05:16:34;13.60;99.90
31542;DHT22;18152;49.986;8.646;2022-09-11T05:19:01;13.50;99.90
31542;DHT22;18152;49.986;8.646;2022-09-11T05:21:29;13.60;99.90
31542;DHT22;18152;49.986;8.646;2022-09-11T05:23:56;13.60;99.90
31542;DHT22;18152;49.986;8.646;2022-09-11T05:26:33;13.60;99.90
31542;DHT22;18152;49.986;8.646;2022-09-11T05:29:02;13.60;99.90
31542;DHT22;18152;49.986;8.646;2022-09-11T05:31:28;13.60;99.90
31542;DHT22;18152;49.986;8.646;2022-09-11T05:33:54;13.70;99.90
31542;DHT22;18152;49.986;8.646;2022-09-11T05:36:20;13.70;99.90
31542;DHT22;18152;49.986;8.646;2022-09-11T05:38:46;13.90;99.90
31542;DHT22;18152;49.986;8.646;2022-09-11T05:41:12;13.90;99.90
31542;DHT22;18152;49.986;8.646;2022-09-11T05:43:40;13.90;99.90
31542;DHT22;18152;49.986;8.646;2022-09-11T05:46:08;14.00;99.90
31542;DHT22;18152;49.986;8.646;2022-09-11T05:48:35;14.00;99.90
31542;DHT22;18152;49.986;8.646;2022-09-11T05:51:07;14.10;99.90
31542;DHT22;18152;49.986;8.646;2022-09-11T05:53:34;14.00;99.90
31542;DHT22;18152;49.986;8.646;2022-09-11T05:56:29;14.10;99.90
31542;DHT22;18152;49.986;8.646;2022-09-11T05:58:55;14.20;99.90
31542;DHT22;18152;49.986;8.646;2022-09-11T06:01:24;14.20;99.90
31542;DHT22;18152;49.986;8.646;2022-09-11T06:03:51;14.10;99.90
31542;DHT22;18152;49.986;8.646;2022-09-11T06:06:18;14.20;99.90
31542;DHT22;18152;49.986;8.646;2022-09-11T06:08:44;14.10;99.90
31542;DHT22;18152;49.986;8.646;2022-09-11T06:11:12;14.10;99.90
31542;DHT22;18152;49.986;8.646;2022-09-11T06:13:43;14.10;99.90
31542;DHT22;18152;49.986;8.646;2022-09-11T06:16:20;14.10;99.90
31542;DHT22;18152;49.986;8.646;2022-09-11T06:18:46;14.10;99.90
31542;DHT22;18152;49.986;8.646;2022-09-11T06:21:13;14.20;99.90
31542;DHT22;18152;49.986;8.646;2022-09-11T06:23:47;14.20;99.90
31542;DHT22;18152;49.986;8.646;2022-09-11T06:26:16;14.40;99.90
31542;DHT22;18152;49.986;8.646;2022-09-11T06:28:41;14.50;99.90
31542;DHT22;18152;49.986;8.646;2022-09-11T06:31:11;14.60;99.90
31542;DHT22;18152;49.986;8.646;2022-09-11T06:33:39;14.60;99.90
31542;DHT22;18152;49.986;8.646;2022-09-11T06:36:08;14.70;99.90
31542;DHT22;18152;49.986;8.646;2022-09-11T06:38:35;14.70;99.90
31542;DHT22;18152;49.986;8.646;2022-09-11T06:41:01;14.80;99.90
31542;DHT22;18152;49.986;8.646;2022-09-11T06:43:30;15.00;99.90
31542;DHT22;18152;49.986;8.646;2022-09-11T06:46:07;15.10;99.90
31542;DHT22;18152;49.986;8.646;2022-09-11T06:48:34;15.30;99.90
31542;DHT22;18152;49.986;8.646;2022-09-11T06:51:04;15.40;99.90
31542;DHT22;18152;49.986;8.646;2022-09-11T06:53:30;15.50;99.90
31542;DHT22;18152;49.986;8.646;2022-09-11T06:56:00;15.40;99.90
31542;DHT22;18152;49.986;8.646;2022-09-11T06:58:26;15.40;99.90
31542;DHT22;18152;49.986;8.646;2022-09-11T07:01:02;15.40;99.90
31542;DHT22;18152;49.986;8.646;2022-09-11T07:03:28;15.40;99.90
31542;DHT22;18152;49.986;8.646;2022-09-11T07:05:54;15.50;99.90
31542;DHT22;18152;49.986;8.646;2022-09-11T07:08:19;15.60;99.90
31542;DHT22;18152;49.986;8.646;2022-09-11T07:10:45;15.70;99.90
31542;DHT22;18152;49.986;8.646;2022-09-11T07:13:11;16.00;99.90
31542;DHT22;18152;49.986;8.646;2022-09-11T07:15:36;16.30;99.90
31542;DHT22;18152;49.986;8.646;2022-09-11T07:18:02;16.40;99.90
31542;DHT22;18152;49.986;8.646;2022-09-11T07:20:28;16.60;99.90
31542;DHT22;18152;49.986;8.646;2022-09-11T07:22:53;16.80;99.90
31542;DHT22;18152;49.986;8.646;2022-09-11T07:25:19;16.90;99.90
31542;DHT22;18152;49.986;8.646;2022-09-11T07:27:44;17.00;99.90
31542;DHT22;18152;49.986;8.646;2022-09-11T07:30:10;17.00;99.90
31542;DHT22;18152;49.986;8.646;2022-09-11T07:32:36;16.90;99.90
31542;DHT22;18152;49.986;8.646;2022-09-11T07:35:03;16.80;99.90
31542;DHT22;18152;49.986;8.646;2022-09-11T07:37:29;16.80;99.90
31542;DHT22;18152;49.986;8.646;2022-09-11T07:39:54;16.70;99.90
31542;DHT22;18152;49.986;8.646;2022-09-11T07:42:20;16.70;99.90
31542;DHT22;18152;49.986;8.646;2022-09-11T07:44:46;16.60;99.90
31542;DHT22;18152;49.986;8.646;2022-09-11T07:47:11;16.60;99.90
31542;DHT22;18152;49.986;8.646;2022-09-11T07:49:37;16.60;99.90
31542;DHT22;18152;49.986;8.646;2022-09-11T07:52:02;16.60;99.90
31542;DHT22;18152;49.986;8.646;2022-09-11T07:54:28;16.70;99.90
31542;DHT22;18152;49.986;8.646;2022-09-11T07:56:54;16.90;99.90
31542;DHT22;18152;49.986;8.646;2022-09-11T07:59:20;16.70;99.90
31542;DHT22;18152;49.986;8.646;2022-09-11T08:01:47;16.60;99.90
31542;DHT22;18152;49.986;8.646;2022-09-11T08:04:14;16.60;99.90
31542;DHT22;18152;49.986;8.646;2022-09-11T08:06:40;16.50;99.90
31542;DHT22;18152;49.986;8.646;2022-09-11T08:09:13;16.60;99.90
31542;DHT22;18152;49.986;8.646;2022-09-11T08:11:46;16.70;99.90
31542;DHT22;18152;49.986;8.646;2022-09-11T08:14:13;16.80;99.90
31542;DHT22;18152;49.986;8.646;2022-09-11T08:16:40;16.90;99.90
31542;DHT22;18152;49.986;8.646;2022-09-11T08:19:06;16.90;99.90
31542;DHT22;18152;49.986;8.646;2022-09-11T08:21:32;17.00;99.90
31542;DHT22;18152;49.986;8.646;2022-09-11T08:23:58;17.10;99.90
31542;DHT22;18152;49.986;8.646;2022-09-11T08:26:28;17.00;99.90
31542;DHT22;18152;49.986;8.646;2022-09-11T08:28:55;16.90;99.90
31542;DHT22;18152;49.986;8.646;2022-09-11T08:31:23;16.80;99.90
31542;DHT22;18152;49.986;8.646;2022-09-11T08:33:52;16.60;99.90
31542;DHT22;18152;49.986;8.646;2022-09-11T08:36:18;16.60;99.90
31542;DHT22;18152;49.986;8.646;2022-09-11T08:38:45;16.60;99.90
31542;DHT22;18152;49.986;8.646;2022-09-11T08:43:52;16.70;99.90
31542;DHT22;18152;49.986;8.646;2022-09-11T08:46:25;16.90;99.90
31542;DHT22;18152;49.986;8.646;2022-09-11T08:51:35;16.90;99.90
31542;DHT22;18152;49.986;8.646;2022-09-11T08:54:02;17.00;99.90
31542;DHT22;18152;49.986;8.646;2022-09-11T08:56:29;17.60;99.90
31542;DHT22;18152;49.986;8.646;2022-09-11T09:01:47;17.40;99.90
31542;DHT22;18152;49.986;8.646;2022-09-11T09:08:14;18.00;99.90
31542;DHT22;18152;49.986;8.646;2022-09-11T09:10:21;18.30;99.90
31542;DHT22;18152;49.986;8.646;2022-09-11T09:13:03;18.50;99.90
31542;DHT22;18152;49.986;8.646;2022-09-11T09:18:41;18.70;99.90
31542;DHT22;18152;49.986;8.646;2022-09-11T09:23:55;19.50;99.90
31542;DHT22;18152;49.986;8.646;2022-09-11T09:26:23;19.50;99.90
31542;DHT22;18152;49.986;8.646;2022-09-11T09:28:54;19.40;99.90
31542;DHT22;18152;49.986;8.646;2022-09-11T09:31:26;19.60;99.90
31542;DHT22;18152;49.986;8.646;2022-09-11T09:34:00;19.90;99.90
31542;DHT22;18152;49.986;8.646;2022-09-11T09:36:33;19.60;99.90
31542;DHT22;18152;49.986;8.646;2022-09-11T09:39:16;19.50;99.90
31542;DHT22;18152;49.986;8.646;2022-09-11T09:47:16;20.00;99.90
31542;DHT22;18152;49.986;8.646;2022-09-11T09:49:43;20.40;99.90
31542;DHT22;18152;49.986;8.646;2022-09-11T09:52:18;20.60;99.90
31542;DHT22;18152;49.986;8.646;2022-09-11T09:54:56;20.40;99.90
31542;DHT22;18152;49.986;8.646;2022-09-11T09:57:28;19.60;99.90
31542;DHT22;18152;49.986;8.646;2022-09-11T10:00:04;19.10;99.90
31542;DHT22;18152;49.986;8.646;2022-09-11T10:02:41;18.80;99.90
31542;DHT22;18152;49.986;8.646;2022-09-11T10:05:23;18.70;99.90
31542;DHT22;18152;49.986;8.646;2022-09-11T10:12:56;20.10;99.90
31542;DHT22;18152;49.986;8.646;2022-09-11T10:15:24;20.50;99.90
31542;DHT22;18152;49.986;8.646;2022-09-11T10:17:50;20.70;99.90
31542;DHT22;18152;49.986;8.646;2022-09-11T10:22:43;20.20;99.90
31542;DHT22;18152;49.986;8.646;2022-09-11T10:25:16;20.30;99.90
31542;DHT22;18152;49.986;8.646;2022-09-11T10:28:05;20.40;99.90
31542;DHT22;18152;49.986;8.646;2022-09-11T10:30:38;20.70;99.90
31542;DHT22;18152;49.986;8.646;2022-09-11T10:33:37;21.00;99.90
31542;DHT22;18152;49.986;8.646;2022-09-11T10:36:07;21.10;99.90
31542;DHT22;18152;49.986;8.646;2022-09-11T10:38:36;21.00;99.90
31542;DHT22;18152;49.986;8.646;2022-09-11T10:41:29;20.90;99.90
31542;DHT22;18152;49.986;8.646;2022-09-11T10:44:04;20.30;99.90
31542;DHT22;18152;49.986;8.646;2022-09-11T10:46:31;20.00;99.90
31542;DHT22;18152;49.986;8.646;2022-09-11T10:49:21;20.20;99.90
31542;DHT22;18152;49.986;8.646;2022-09-11T10:54:38;20.60;99.90
31542;DHT22;18152;49.986;8.646;2022-09-11T10:57:36;20.40;99.90
31542;DHT22;18152;49.986;8.646;2022-09-11T11:00:19;20.00;99.90
31542;DHT22;18152;49.986;8.646;2022-09-11T11:02:48;19.50;99.90
31542;DHT22;18152;49.986;8.646;2022-09-11T11:05:24;19.00;99.90
31542;DHT22;18152;49.986;8.646;2022-09-11T11:10:42;18.50;99.90
31542;DHT22;18152;49.986;8.646;2022-09-11T11:13:38;18.20;99.90
31542;DHT22;18152;49.986;8.646;2022-09-11T11:24:35;17.70;99.90
31542;DHT22;18152;49.986;8.646;2022-09-11T11:30:17;17.60;99.90
31542;DHT22;18152;49.986;8.646;2022-09-11T11:32:58;17.50;99.90
31542;DHT22;18152;49.986;8.646;2022-09-11T11:35:55;17.50;99.90
31542;DHT22;18152;49.986;8.646;2022-09-11T11:41:29;17.60;99.90
31542;DHT22;18152;49.986;8.646;2022-09-11T11:44:02;17.50;99.90
31542;DHT22;18152;49.986;8.646;2022-09-11T11:46:37;17.50;99.90
31542;DHT22;18152;49.986;8.646;2022-09-11T11:49:11;17.60;99.90
31542;DHT22;18152;49.986;8.646;2022-09-11T11:52:01;17.50;99.90
31542;DHT22;18152;49.986;8.646;2022-09-11T11:54:39;17.70;99.90
31542;DHT22;18152;49.986;8.646;2022-09-11T11:57:19;17.80;99.90
31542;DHT22;18152;49.986;8.646;2022-09-11T12:02:31;18.00;99.90
31542;DHT22;18152;49.986;8.646;2022-09-11T12:05:04;18.10;99.90
31542;DHT22;18152;49.986;8.646;2022-09-11T12:07:33;18.20;99.90
31542;DHT22;18152;49.986;8.646;2022-09-11T12:10:02;18.40;99.90
31542;DHT22;18152;49.986;8.646;2022-09-11T12:12:34;18.40;99.90
31542;DHT22;18152;49.986;8.646;2022-09-11T12:15:08;18.50;99.90
31542;DHT22;18152;49.986;8.646;2022-09-11T12:17:41;18.60;99.90
31542;DHT22;18152;49.986;8.646;2022-09-11T12:22:41;18.40;99.90
31542;DHT22;18152;49.986;8.646;2022-09-11T12:32:49;18.40;99.90
31542;DHT22;18152;49.986;8.646;2022-09-11T12:35:25;18.50;99.90
31542;DHT22;18152;49.986;8.646;2022-09-11T12:40:37;18.40;99.90
31542;DHT22;18152;49.986;8.646;2022-09-11T12:45:51;18.50;99.90
31542;DHT22;18152;49.986;8.646;2022-09-11T12:48:22;18.50;99.90
31542;DHT22;18152;49.986;8.646;2022-09-11T12:50:54;18.60;99.90
31542;DHT22;18152;49.986;8.646;2022-09-11T12:53:32;18.60;99.90
31542;DHT22;18152;49.986;8.646;2022-09-11T12:56:02;18.80;99.90
31542;DHT22;18152;49.986;8.646;2022-09-11T12:58:34;19.10;99.90
31542;DHT22;18152;49.986;8.646;2022-09-11T13:01:22;19.40;99.90
31542;DHT22;18152;49.986;8.646;2022-09-11T13:06:45;20.00;99.90
31542;DHT22;18152;49.986;8.646;2022-09-11T13:11:51;20.00;99.90
31542;DHT22;18152;49.986;8.646;2022-09-11T13:16:56;20.10;99.90
31542;DHT22;18152;49.986;8.646;2022-09-11T13:19:22;20.50;99.90
31542;DHT22;18152;49.986;8.646;2022-09-11T13:21:55;21.20;99.90
31542;DHT22;18152;49.986;8.646;2022-09-11T13:24:31;21.60;99.90
31542;DHT22;18152;49.986;8.646;2022-09-11T13:29:29;21.70;99.90
31542;DHT22;18152;49.986;8.646;2022-09-11T13:31:56;22.00;99.90
31542;DHT22;18152;49.986;8.646;2022-09-11T13:34:26;21.80;99.90
31542;DHT22;18152;49.986;8.646;2022-09-11T13:36:53;21.50;99.90
31542;DHT22;18152;49.986;8.646;2022-09-11T13:39:21;21.70;99.90
31542;DHT22;18152;49.986;8.646;2022-09-11T13:41:48;21.50;99.90
31542;DHT22;18152;49.986;8.646;2022-09-11T13:44:38;21.40;99.90
31542;DHT22;18152;49.986;8.646;2022-09-11T13:47:23;21.50;99.90
31542;DHT22;18152;49.986;8.646;2022-09-11T13:49:59;21.80;99.90
31542;DHT22;18152;49.986;8.646;2022-09-11T13:52:27;21.80;99.90
31542;DHT22;18152;49.986;8.646;2022-09-11T13:54:56;22.00;99.90
31542;DHT22;18152;49.986;8.646;2022-09-11T13:57:26;22.00;99.90
31542;DHT22;18152;49.986;8.646;2022-09-11T13:59:56;22.20;99.90
31542;DHT22;18152;49.986;8.646;2022-09-11T14:05:21;22.40;99.90
31542;DHT22;18152;49.986;8.646;2022-09-11T14:08:00;22.30;99.90
31542;DHT22;18152;49.986;8.646;2022-09-11T14:10:49;22.10;99.90
31542;DHT22;18152;49.986;8.646;2022-09-11T14:13:29;22.00;99.90
31542;DHT22;18152;49.986;8.646;2022-09-11T14:18:27;21.70;99.90
31542;DHT22;18152;49.986;8.646;2022-09-11T14:20:56;21.70;99.90
31542;DHT22;18152;49.986;8.646;2022-09-11T14:23:25;21.70;99.90
31542;DHT22;18152;49.986;8.646;2022-09-11T14:28:36;21.80;99.90
31542;DHT22;18152;49.986;8.646;2022-09-11T14:31:09;21.60;99.90
31542;DHT22;18152;49.986;8.646;2022-09-11T14:33:35;21.60;99.90
31542;DHT22;18152;49.986;8.646;2022-09-11T14:36:31;21.60;99.90
31542;DHT22;18152;49.986;8.646;2022-09-11T14:38:58;21.60;99.90
31542;DHT22;18152;49.986;8.646;2022-09-11T14:41:25;21.50;99.90
31542;DHT22;18152;49.986;8.646;2022-09-11T14:43:50;21.40;99.90
31542;DHT22;18152;49.986;8.646;2022-09-11T14:46:16;21.30;99.90
31542;DHT22;18152;49.986;8.646;2022-09-11T14:48:42;21.20;99.90
31542;DHT22;18152;49.986;8.646;2022-09-11T14:51:08;20.90;99.90
31542;DHT22;18152;49.986;8.646;2022-09-11T14:53:35;20.90;99.90
31542;DHT22;18152;49.986;8.646;2022-09-11T14:56:02;21.00;99.90
31542;DHT22;18152;49.986;8.646;2022-09-11T14:58:28;20.90;99.90
31542;DHT22;18152;49.986;8.646;2022-09-11T15:00:55;20.80;99.90
31542;DHT22;18152;49.986;8.646;2022-09-11T15:03:22;20.70;99.90
31542;DHT22;18152;49.986;8.646;2022-09-11T15:05:58;20.70;99.90
31542;DHT22;18152;49.986;8.646;2022-09-11T15:08:24;20.80;99.90
31542;DHT22;18152;49.986;8.646;2022-09-11T15:10:50;20.60;99.90
31542;DHT22;18152;49.986;8.646;2022-09-11T15:13:18;20.60;99.90
31542;DHT22;18152;49.986;8.646;2022-09-11T15:15:44;20.70;99.90
31542;DHT22;18152;49.986;8.646;2022-09-11T15:18:09;20.60;99.90
31542;DHT22;18152;49.986;8.646;2022-09-11T15:20:35;20.80;99.90
31542;DHT22;18152;49.986;8.646;2022-09-11T15:23:02;20.60;99.90
31542;DHT22;18152;49.986;8.646;2022-09-11T15:25:28;20.60;99.90
31542;DHT22;18152;49.986;8.646;2022-09-11T15:27:53;20.50;99.90
31542;DHT22;18152;49.986;8.646;2022-09-11T15:30:20;20.60;99.90
31542;DHT22;18152;49.986;8.646;2022-09-11T15:32:46;20.50;99.90
31542;DHT22;18152;49.986;8.646;2022-09-11T15:35:13;20.40;99.90
31542;DHT22;18152;49.986;8.646;2022-09-11T15:37:42;20.50;99.90
31542;DHT22;18152;49.986;8.646;2022-09-11T15:40:10;20.40;99.90
31542;DHT22;18152;49.986;8.646;2022-09-11T15:42:36;20.50;99.90
31542;DHT22;18152;49.986;8.646;2022-09-11T15:45:02;20.60;99.90
31542;DHT22;18152;49.986;8.646;2022-09-11T15:47:27;20.70;99.90
31542;DHT22;18152;49.986;8.646;2022-09-11T15:49:56;20.70;99.90
31542;DHT22;18152;49.986;8.646;2022-09-11T15:52:23;20.70;99.90
31542;DHT22;18152;49.986;8.646;2022-09-11T15:54:51;20.60;99.90
31542;DHT22;18152;49.986;8.646;2022-09-11T15:57:17;20.50;99.90
31542;DHT22;18152;49.986;8.646;2022-09-11T15:59:42;20.50;99.90
31542;DHT22;18152;49.986;8.646;2022-09-11T16:02:10;20.40;99.90
31542;DHT22;18152;49.986;8.646;2022-09-11T16:04:36;20.50;99.90
31542;DHT22;18152;49.986;8.646;2022-09-11T16:07:02;20.40;99.90
31542;DHT22;18152;49.986;8.646;2022-09-11T16:09:29;20.50;99.90
31542;DHT22;18152;49.986;8.646;2022-09-11T16:11:56;20.50;99.90
31542;DHT22;18152;49.986;8.646;2022-09-11T16:14:33;20.50;99.90
31542;DHT22;18152;49.986;8.646;2022-09-11T16:17:00;20.40;99.90
31542;DHT22;18152;49.986;8.646;2022-09-11T16:19:28;20.50;99.90
31542;DHT22;18152;49.986;8.646;2022-09-11T16:21:58;20.70;99.90
31542;DHT22;18152;49.986;8.646;2022-09-11T16:24:26;20.90;99.90
31542;DHT22;18152;49.986;8.646;2022-09-11T16:26:53;20.60;99.90
31542;DHT22;18152;49.986;8.646;2022-09-11T16:29:21;20.60;99.90
31542;DHT22;18152;49.986;8.646;2022-09-11T16:31:47;20.50;99.90
31542;DHT22;18152;49.986;8.646;2022-09-11T16:34:14;20.50;99.90
31542;DHT22;18152;49.986;8.646;2022-09-11T16:36:40;20.40;99.90
31542;DHT22;18152;49.986;8.646;2022-09-11T16:39:10;20.30;99.90
31542;DHT22;18152;49.986;8.646;2022-09-11T16:41:36;20.20;99.90
31542;DHT22;18152;49.986;8.646;2022-09-11T16:44:03;20.20;99.90
31542;DHT22;18152;49.986;8.646;2022-09-11T16:46:29;20.10;99.90
31542;DHT22;18152;49.986;8.646;2022-09-11T16:48:55;20.10;99.90
31542;DHT22;18152;49.986;8.646;2022-09-11T16:51:23;20.10;99.90
31542;DHT22;18152;49.986;8.646;2022-09-11T16:53:50;19.90;99.90
31542;DHT22;18152;49.986;8.646;2022-09-11T16:56:18;19.80;99.90
31542;DHT22;18152;49.986;8.646;2022-09-11T16:58:45;19.70;99.90
31542;DHT22;18152;49.986;8.646;2022-09-11T17:01:19;19.60;99.90
31542;DHT22;18152;49.986;8.646;2022-09-11T17:03:47;19.50;99.90
31542;DHT22;18152;49.986;8.646;2022-09-11T17:06:13;19.30;99.90
31542;DHT22;18152;49.986;8.646;2022-09-11T17:08:40;19.10;99.90
31542;DHT22;18152;49.986;8.646;2022-09-11T17:11:07;19.00;99.90
31542;DHT22;18152;49.986;8.646;2022-09-11T17:13:35;18.90;99.90
31542;DHT22;18152;49.986;8.646;2022-09-11T17:16:03;18.80;99.90
31542;DHT22;18152;49.986;8.646;2022-09-11T17:18:29;18.60;99.90
31542;DHT22;18152;49.986;8.646;2022-09-11T17:20:56;18.50;99.90
31542;DHT22;18152;49.986;8.646;2022-09-11T17:23:24;18.40;99.90
31542;DHT22;18152;49.986;8.646;2022-09-11T17:25:50;18.40;99.90
31542;DHT22;18152;49.986;8.646;2022-09-11T17:28:16;18.30;99.90
31542;DHT22;18152;49.986;8.646;2022-09-11T17:30:44;18.20;99.90
31542;DHT22;18152;49.986;8.646;2022-09-11T17:33:10;18.10;99.90
31542;DHT22;18152;49.986;8.646;2022-09-11T17:35:35;17.90;99.90
31542;DHT22;18152;49.986;8.646;2022-09-11T17:38:02;17.80;99.90
31542;DHT22;18152;49.986;8.646;2022-09-11T17:40:28;17.80;99.90
31542;DHT22;18152;49.986;8.646;2022-09-11T17:42:54;17.70;99.90
31542;DHT22;18152;49.986;8.646;2022-09-11T17:45:20;17.60;99.90
31542;DHT22;18152;49.986;8.646;2022-09-11T17:47:47;17.50;99.90
31542;DHT22;18152;49.986;8.646;2022-09-11T17:50:13;17.40;99.90